Pagrindinis puslapis
METAR-TAF:

METAR-TAF

Oro uostai :

Ahvazas, Iranas

platuma: 31-20N, ilguma: 048-40E, Aukštis: 20 m

Dabartinis oras

Ataskaita buvo paskelbta 35 minutes, ne 20:00 UTC
Vėjas 10 kt iš Vakarų
Temperatūra 33°C
Drėgmė 16%
Slėgis 997 hPa
Matomumas 10 km arba daugiau
nėra debesų žemiau 1500 m ir nėra kamuolinių lietaus debesų

METAR: OIAW 172000Z 28010KT CAVOK 33/04 Q0997

Laikas: 01:05 (20:35 UTC)

Prognozė

Ataskaita buvo paskelbta 2 valandos ir 25 minutes, ne 18:10 UTC
Prognozė galioja nuo 17 metu 18 UTC su 18 metu 24 UTC
Vėjas 10 kt iš Vakarų/Šiaurės Vakarų
Matomumas: 5000 m
dulkės
Laikinai
nuo 17 metu 18 UTC su 17 metu 21 UTC
Vėjas 18 kt iš Vakarų/Šiaurės Vakarų
Tikimybė 30%
nuo 17 metu 18 UTC su 17 metu 21 UTC
Matomumas: 2000 m
Tapsmas
nuo 17 metu 21 UTC su 17 metu 23 UTC
Matomumas: 6000 m
Laikinai
nuo 18 metu 09 UTC su 18 metu 16 UTC
Vėjas 20 kt iš Vakarų/Šiaurės Vakarų
Matomumas: 4000 m

TAF: OIAW 171810Z 1718/1824 29010KT 5000 DU NSC TEMPO 1718/1721 29018KT PROB30 1718/1721 2000 DU/SA BECMG 1721/1723 6000 TEMPO 1809/1816 29020KT 4000 DU/SA

Orai ataskaitas ir orų prognozės (METAR, TAF).

turimą stotys yra geltonos ir raudonos taškus žemėlapyje.

Perkelti pele per norėdami pamatyti stoties vardą.

Tada spustelėkite, norėdami matyti oro stebėjimo ir prognozės.

Norėdami pakeisti žemėlapį: spustelėkite ant žalios mygtukų su juodo kryžiaus žemyn,; žalią mygtuką su brūkšneliu, jei norite nutolinti; arba žalių rodyklių gretimoms žemėlapius.


METAR-TAF: